createdAt,value
2017-09-25T00:00:43.230Z,43.37
2017-09-25T00:05:45.781Z,47.63
2017-09-25T00:10:48.039Z,45.87
2017-09-25T00:15:50.215Z,45.77
2017-09-25T00:20:53.596Z,48.83
2017-09-25T00:25:56.721Z,51.47
2017-09-25T00:31:00.282Z,50.07
2017-09-25T00:36:03.044Z,49.87
2017-09-25T00:41:05.780Z,53.83
2017-09-25T00:46:09.293Z,51.93
2017-09-25T00:51:12.644Z,53.20
2017-09-25T00:56:16.052Z,54.90
2017-09-25T01:01:19.803Z,59.57
2017-09-25T01:06:27.168Z,56.43
2017-09-25T01:11:29.857Z,57.83
2017-09-25T01:16:33.213Z,55.80
2017-09-25T01:21:35.820Z,56.57
2017-09-25T01:26:38.511Z,54.90
2017-09-25T01:31:41.198Z,56.67
2017-09-25T01:36:43.825Z,55.20
2017-09-25T01:41:47.947Z,57.90
2017-09-25T01:46:49.876Z,54.90
2017-09-25T01:51:52.568Z,53.93
2017-09-25T01:56:54.919Z,54.90
2017-09-25T02:01:57.189Z,55.97
2017-09-25T02:06:59.794Z,53.20
2017-09-25T02:12:02.311Z,50.77
2017-09-25T02:17:05.031Z,48.93
2017-09-25T02:22:07.814Z,47.77
2017-09-25T02:27:10.342Z,52.10
2017-09-25T02:32:12.454Z,49.80
2017-09-25T02:37:14.534Z,49.73
2017-09-25T02:42:17.291Z,49.13
2017-09-25T02:47:21.409Z,53.50
2017-09-25T02:52:24.190Z,53.77
2017-09-25T02:57:26.763Z,52.47
2017-09-25T03:02:29.228Z,45.53
2017-09-25T03:07:31.833Z,49.27
2017-09-25T03:12:35.246Z,46.60
2017-09-25T03:17:37.686Z,52.20
2017-09-25T03:22:40.430Z,52.27
2017-09-25T03:27:43.151Z,49.90
2017-09-25T03:32:45.806Z,49.70
2017-09-25T03:37:48.403Z,49.77
2017-09-25T03:42:50.722Z,47.97
2017-09-25T03:47:52.793Z,47.90
2017-09-25T03:52:55.472Z,49.30
2017-09-25T03:57:58.027Z,47.20
2017-09-25T04:03:00.127Z,47.90
2017-09-25T04:08:02.707Z,48.23
2017-09-25T04:13:05.087Z,44.30
2017-09-25T04:18:08.644Z,41.47
2017-09-25T04:23:10.740Z,42.27
2017-09-25T04:28:13.192Z,42.20
2017-09-25T04:33:15.122Z,41.80
2017-09-25T04:38:17.696Z,40.93
2017-09-25T04:43:20.350Z,42.77
2017-09-25T04:48:23.841Z,40.97
2017-09-25T04:53:26.418Z,40.70
2017-09-25T04:58:28.801Z,44.00
2017-09-25T05:03:31.991Z,40.10
2017-09-25T05:08:34.450Z,48.57
2017-09-25T05:13:37.783Z,42.70
2017-09-25T05:18:40.329Z,40.00
2017-09-25T05:23:42.459Z,40.13
2017-09-25T05:28:45.012Z,40.87
2017-09-25T05:33:47.763Z,39.43
2017-09-25T05:38:50.984Z,40.30
2017-09-25T05:43:53.570Z,39.63
2017-09-25T05:48:56.071Z,40.97
2017-09-25T05:53:58.715Z,39.30
2017-09-25T05:59:01.872Z,41.23
2017-09-25T06:04:04.395Z,39.27
2017-09-25T06:09:07.096Z,41.00
2017-09-25T06:14:09.780Z,41.60
2017-09-25T06:19:13.293Z,42.20
2017-09-25T06:24:17.357Z,47.80
2017-09-25T06:29:19.968Z,48.17
2017-09-25T06:34:22.664Z,48.97
2017-09-25T06:39:26.047Z,49.60
2017-09-25T06:44:28.200Z,49.67
2017-09-25T06:49:30.843Z,47.57
2017-09-25T06:54:33.077Z,49.33
2017-09-25T06:59:35.704Z,46.80
2017-09-25T07:04:38.951Z,46.80
2017-09-25T07:09:41.619Z,46.10
2017-09-25T07:14:44.351Z,45.17
2017-09-25T07:19:46.492Z,42.13
2017-09-25T07:24:49.084Z,42.27
2017-09-25T07:29:52.685Z,41.83
2017-09-25T07:34:56.288Z,43.00
2017-09-25T07:39:59.610Z,41.10
2017-09-25T07:45:01.701Z,42.93
2017-09-25T07:50:04.090Z,43.70
2017-09-25T07:55:07.382Z,44.37
2017-09-25T08:00:10.420Z,43.00
2017-09-25T08:05:12.655Z,42.70
2017-09-25T08:10:14.961Z,45.43
2017-09-25T08:15:17.565Z,44.03
2017-09-25T08:20:19.987Z,41.20
2017-09-25T08:25:22.774Z,43.07
2017-09-25T08:30:25.202Z,42.37
2017-09-25T08:35:27.835Z,40.97
2017-09-25T08:40:30.423Z,40.67
2017-09-25T08:45:32.988Z,35.70
2017-09-25T08:50:35.569Z,37.07
2017-09-25T08:55:38.066Z,39.00
2017-09-25T09:00:40.716Z,33.83
2017-09-25T09:05:43.315Z,32.57
2017-09-25T09:10:46.932Z,34.47
2017-09-25T09:15:49.571Z,34.17
2017-09-25T09:20:55.054Z,36.23
2017-09-25T09:25:57.956Z,36.43
2017-09-25T09:31:01.514Z,37.27
2017-09-25T09:36:03.959Z,37.30
2017-09-25T09:41:06.578Z,36.87
2017-09-25T09:46:09.876Z,36.33
2017-09-25T09:51:12.222Z,34.90
2017-09-25T09:56:15.412Z,34.33
2017-09-25T10:01:18.582Z,35.27
2017-09-25T10:06:21.262Z,33.33
2017-09-25T10:11:23.903Z,33.90
2017-09-25T10:16:25.887Z,34.63
2017-09-25T10:21:35.067Z,32.03
2017-09-25T10:26:39.672Z,31.80
2017-09-25T10:31:42.863Z,32.70
2017-09-25T10:36:45.501Z,30.47
2017-09-25T10:41:48.588Z,31.40
2017-09-25T10:46:51.760Z,29.23
2017-09-25T10:51:56.439Z,29.73
2017-09-25T10:56:59.600Z,27.73
2017-09-25T11:02:02.609Z,27.47
2017-09-25T11:07:05.587Z,28.80
2017-09-25T11:12:08.518Z,26.90
2017-09-25T11:17:11.542Z,26.80
2017-09-25T11:22:14.890Z,24.77
2017-09-25T11:27:18.021Z,25.73
2017-09-25T11:32:20.970Z,26.07
2017-09-25T11:37:23.635Z,26.50
2017-09-25T11:42:26.333Z,27.07
2017-09-25T11:47:29.129Z,28.30
2017-09-25T11:52:31.520Z,29.97
2017-09-25T11:57:34.347Z,30.90
2017-09-25T12:02:36.349Z,30.30
2017-09-25T12:07:38.937Z,28.47
2017-09-25T12:12:42.523Z,29.90
2017-09-25T12:17:45.190Z,30.53
2017-09-25T12:22:48.273Z,30.80
2017-09-25T12:27:51.052Z,29.07
2017-09-25T12:32:53.602Z,30.67
2017-09-25T12:37:56.184Z,29.90
2017-09-25T12:42:58.775Z,30.67
2017-09-25T12:48:01.488Z,28.30
2017-09-25T12:53:04.124Z,30.57
2017-09-25T12:58:06.370Z,30.60
2017-09-25T13:03:09.099Z,29.60
2017-09-25T13:08:11.038Z,28.63
2017-09-25T13:13:13.248Z,28.63
2017-09-25T13:18:15.894Z,29.33
2017-09-25T13:23:18.487Z,27.83
2017-09-25T13:28:21.098Z,28.43
2017-09-25T13:33:24.141Z,26.90
2017-09-25T13:38:26.355Z,28.67
2017-09-25T13:43:28.563Z,14.50
2017-09-25T13:48:31.197Z,24.03
2017-09-25T13:53:33.399Z,28.57
2017-09-25T14:03:43.196Z,31.80
2017-09-25T14:08:45.919Z,33.43
2017-09-25T14:13:48.316Z,35.73
2017-09-25T14:18:50.429Z,33.23
2017-09-25T14:23:53.085Z,33.00
2017-09-25T14:28:55.763Z,33.83
2017-09-25T14:33:58.500Z,35.30
2017-09-25T14:39:01.165Z,33.80
2017-09-25T14:44:05.857Z,30.97
2017-09-25T14:49:08.512Z,41.60
2017-09-25T14:54:11.792Z,32.43
2017-09-25T14:59:15.882Z,30.00
2017-09-25T15:04:18.409Z,30.13
2017-09-25T15:15:02.422Z,30.00
2017-09-25T15:30:50.540Z,33.00
2017-09-25T15:36:05.751Z,31.67
2017-09-25T15:46:32.294Z,32.30
2017-09-25T15:51:38.009Z,36.10
2017-09-25T15:56:49.200Z,30.97
2017-09-25T16:02:00.346Z,29.90
2017-09-25T16:07:19.261Z,31.73
2017-09-25T16:12:29.994Z,32.37
2017-09-25T16:17:49.601Z,35.77
2017-09-25T16:22:59.385Z,37.00
2017-09-25T16:28:09.968Z,41.30
2017-09-25T16:33:16.153Z,39.07
2017-09-25T16:38:29.148Z,37.80
2017-09-25T16:43:42.771Z,39.30
2017-09-25T16:48:59.367Z,35.33
2017-09-25T16:54:18.139Z,40.13
2017-09-25T16:59:24.158Z,37.97
2017-09-25T17:04:28.504Z,32.63
2017-09-25T17:09:33.386Z,26.37
2017-09-25T17:14:38.937Z,31.03
2017-09-25T17:19:43.614Z,38.80
2017-09-25T17:24:51.255Z,36.10
2017-09-25T17:29:56.921Z,38.93
2017-09-25T17:35:02.611Z,39.13
2017-09-25T17:40:09.648Z,43.53
2017-09-25T17:45:15.697Z,42.73
2017-09-25T17:50:20.781Z,46.70
2017-09-25T17:55:25.917Z,44.00
2017-09-25T18:00:33.553Z,41.93
2017-09-25T18:05:39.441Z,45.90
2017-09-25T18:10:47.170Z,47.30
2017-09-25T18:15:54.951Z,46.90
2017-09-25T18:21:01.961Z,47.40
2017-09-25T18:26:07.195Z,51.77
2017-09-25T18:31:15.684Z,53.07
2017-09-25T18:36:23.935Z,54.97
2017-09-25T18:41:27.683Z,55.03
2017-09-25T18:46:31.085Z,56.17
2017-09-25T18:51:33.096Z,51.10
2017-09-25T18:56:35.420Z,53.23
2017-09-25T19:01:38.345Z,52.80
2017-09-25T19:06:42.111Z,50.97
2017-09-25T19:11:45.901Z,50.37
2017-09-25T19:16:48.413Z,47.87
2017-09-25T19:21:57.652Z,54.50
2017-09-25T19:27:05.413Z,50.00
2017-09-25T19:32:12.775Z,48.57
2017-09-25T19:37:16.268Z,42.80
2017-09-25T19:42:22.952Z,41.93
2017-09-25T19:47:28.993Z,37.57
2017-09-25T19:52:39.795Z,36.63
2017-09-25T20:03:29.351Z,35.00
2017-09-25T20:08:31.316Z,34.30
2017-09-25T20:13:45.426Z,33.23
2017-09-25T20:18:49.138Z,30.83
2017-09-25T20:23:51.416Z,32.70
2017-09-25T20:28:55.931Z,31.00
2017-09-25T20:34:02.175Z,33.13
2017-09-25T20:39:06.834Z,31.27
2017-09-25T20:44:11.807Z,33.83
2017-09-25T20:49:16.280Z,31.30
2017-09-25T20:54:21.778Z,33.97
2017-09-25T20:59:26.205Z,32.63
2017-09-25T21:04:31.290Z,34.20
2017-09-25T21:09:36.173Z,30.93
2017-09-25T21:14:40.771Z,33.50
2017-09-25T21:19:47.035Z,34.13
2017-09-25T21:24:51.669Z,34.10
2017-09-25T21:29:56.051Z,35.30
2017-09-25T21:35:01.298Z,35.90
2017-09-25T21:40:05.806Z,35.87
2017-09-25T21:45:10.219Z,36.00
2017-09-25T21:50:14.628Z,34.57
2017-09-25T21:55:19.273Z,32.50
2017-09-25T22:00:24.487Z,34.20
2017-09-25T22:05:28.834Z,34.70
2017-09-25T22:10:33.230Z,34.50
2017-09-25T22:15:37.698Z,35.10
2017-09-25T22:20:39.775Z,31.50
2017-09-25T22:25:41.748Z,31.43
2017-09-25T22:30:44.467Z,32.37
2017-09-25T22:35:46.764Z,34.37
2017-09-25T22:40:59.247Z,34.80
2017-09-25T22:46:02.016Z,36.50
2017-09-25T22:51:05.458Z,39.70
2017-09-25T22:56:07.872Z,38.57
2017-09-25T23:01:10.304Z,41.00
2017-09-25T23:06:12.796Z,39.77
2017-09-25T23:11:16.507Z,41.30
2017-09-25T23:16:19.121Z,42.20
2017-09-25T23:21:21.050Z,41.40
2017-09-25T23:26:23.275Z,41.70
2017-09-25T23:31:26.892Z,40.33
2017-09-25T23:36:29.004Z,43.57
2017-09-25T23:41:31.724Z,42.80
2017-09-25T23:46:35.095Z,44.37
2017-09-25T23:51:37.646Z,43.67
2017-09-25T23:56:39.606Z,44.17
